sensor_id;sensor_type;location;lat;lon;timestamp;P1;durP1;ratioP1;P2;durP2;ratioP2
40945;SDS011;55635;50.264;11.918;2022-11-15T00:02:31;35.92;;;18.55;;
40945;SDS011;55635;50.264;11.918;2022-11-15T00:05:33;35.58;;;18.70;;
40945;SDS011;55635;50.264;11.918;2022-11-15T00:08:34;37.10;;;19.05;;
40945;SDS011;55635;50.264;11.918;2022-11-15T00:11:34;38.28;;;20.50;;
40945;SDS011;55635;50.264;11.918;2022-11-15T00:14:33;35.17;;;18.40;;
40945;SDS011;55635;50.264;11.918;2022-11-15T00:17:33;32.80;;;17.33;;
40945;SDS011;55635;50.264;11.918;2022-11-15T00:20:36;29.95;;;16.95;;
40945;SDS011;55635;50.264;11.918;2022-11-15T00:23:35;32.40;;;17.40;;
40945;SDS011;55635;50.264;11.918;2022-11-15T00:26:36;30.27;;;17.15;;
40945;SDS011;55635;50.264;11.918;2022-11-15T00:29:35;30.20;;;17.77;;
40945;SDS011;55635;50.264;11.918;2022-11-15T00:32:37;29.42;;;16.67;;
40945;SDS011;55635;50.264;11.918;2022-11-15T00:35:36;31.02;;;16.25;;
40945;SDS011;55635;50.264;11.918;2022-11-15T00:38:37;27.00;;;16.23;;
40945;SDS011;55635;50.264;11.918;2022-11-15T00:41:38;26.25;;;15.80;;
40945;SDS011;55635;50.264;11.918;2022-11-15T00:44:37;29.23;;;17.50;;
40945;SDS011;55635;50.264;11.918;2022-11-15T00:47:37;27.73;;;15.52;;
40945;SDS011;55635;50.264;11.918;2022-11-15T00:50:36;26.80;;;15.18;;
40945;SDS011;55635;50.264;11.918;2022-11-15T00:53:36;26.95;;;16.08;;
40945;SDS011;55635;50.264;11.918;2022-11-15T00:56:35;26.63;;;16.30;;
40945;SDS011;55635;50.264;11.918;2022-11-15T00:59:35;28.33;;;15.93;;
40945;SDS011;55635;50.264;11.918;2022-11-15T01:02:34;21.58;;;12.73;;
40945;SDS011;55635;50.264;11.918;2022-11-15T01:05:36;27.00;;;15.88;;
40945;SDS011;55635;50.264;11.918;2022-11-15T01:08:37;25.58;;;14.38;;
40945;SDS011;55635;50.264;11.918;2022-11-15T01:11:38;32.03;;;17.23;;
40945;SDS011;55635;50.264;11.918;2022-11-15T01:14:38;26.00;;;15.30;;
40945;SDS011;55635;50.264;11.918;2022-11-15T01:17:38;27.70;;;15.38;;
40945;SDS011;55635;50.264;11.918;2022-11-15T01:20:41;27.48;;;16.08;;
40945;SDS011;55635;50.264;11.918;2022-11-15T01:23:41;28.63;;;15.98;;
40945;SDS011;55635;50.264;11.918;2022-11-15T01:26:40;30.02;;;16.27;;
40945;SDS011;55635;50.264;11.918;2022-11-15T01:29:40;28.77;;;16.15;;
40945;SDS011;55635;50.264;11.918;2022-11-15T01:32:39;32.90;;;16.58;;
40945;SDS011;55635;50.264;11.918;2022-11-15T01:35:39;28.17;;;16.05;;
40945;SDS011;55635;50.264;11.918;2022-11-15T01:38:39;26.75;;;16.17;;
40945;SDS011;55635;50.264;11.918;2022-11-15T01:41:38;29.85;;;17.23;;
40945;SDS011;55635;50.264;11.918;2022-11-15T01:44:42;29.00;;;16.08;;
40945;SDS011;55635;50.264;11.918;2022-11-15T01:47:50;27.42;;;15.95;;
40945;SDS011;55635;50.264;11.918;2022-11-15T01:50:52;30.85;;;16.08;;
40945;SDS011;55635;50.264;11.918;2022-11-15T01:53:52;37.08;;;16.98;;
40945;SDS011;55635;50.264;11.918;2022-11-15T01:57:01;26.65;;;15.32;;
40945;SDS011;55635;50.264;11.918;2022-11-15T02:00:08;33.33;;;16.23;;
40945;SDS011;55635;50.264;11.918;2022-11-15T02:03:08;27.73;;;16.10;;
40945;SDS011;55635;50.264;11.918;2022-11-15T02:06:08;29.60;;;15.77;;
40945;SDS011;55635;50.264;11.918;2022-11-15T02:09:08;28.42;;;15.23;;
40945;SDS011;55635;50.264;11.918;2022-11-15T02:12:08;23.98;;;15.23;;
40945;SDS011;55635;50.264;11.918;2022-11-15T02:15:11;23.42;;;13.65;;
40945;SDS011;55635;50.264;11.918;2022-11-15T02:18:17;27.45;;;15.60;;
40945;SDS011;55635;50.264;11.918;2022-11-15T02:21:33;28.85;;;14.95;;
40945;SDS011;55635;50.264;11.918;2022-11-15T02:28:44;25.57;;;14.83;;
40945;SDS011;55635;50.264;11.918;2022-11-15T02:32:22;25.90;;;15.75;;
40945;SDS011;55635;50.264;11.918;2022-11-15T02:38:52;26.90;;;15.50;;
40945;SDS011;55635;50.264;11.918;2022-11-15T02:42:11;24.70;;;14.32;;
40945;SDS011;55635;50.264;11.918;2022-11-15T02:45:47;21.70;;;12.88;;
40945;SDS011;55635;50.264;11.918;2022-11-15T02:48:52;26.67;;;14.13;;
40945;SDS011;55635;50.264;11.918;2022-11-15T02:54:53;25.30;;;14.02;;
40945;SDS011;55635;50.264;11.918;2022-11-15T02:58:06;27.83;;;15.57;;
40945;SDS011;55635;50.264;11.918;2022-11-15T03:01:48;27.15;;;15.93;;
40945;SDS011;55635;50.264;11.918;2022-11-15T03:05:24;26.13;;;14.23;;
40945;SDS011;55635;50.264;11.918;2022-11-15T03:09:38;27.63;;;15.07;;
40945;SDS011;55635;50.264;11.918;2022-11-15T03:15:57;24.77;;;15.05;;
40945;SDS011;55635;50.264;11.918;2022-11-15T03:19:21;23.52;;;13.80;;
40945;SDS011;55635;50.264;11.918;2022-11-15T03:22:39;24.92;;;14.93;;
40945;SDS011;55635;50.264;11.918;2022-11-15T03:25:46;25.00;;;14.25;;
40945;SDS011;55635;50.264;11.918;2022-11-15T03:28:53;24.95;;;14.30;;
40945;SDS011;55635;50.264;11.918;2022-11-15T03:32:16;22.50;;;12.73;;
40945;SDS011;55635;50.264;11.918;2022-11-15T03:35:25;24.98;;;14.60;;
40945;SDS011;55635;50.264;11.918;2022-11-15T03:38:29;26.00;;;14.30;;
40945;SDS011;55635;50.264;11.918;2022-11-15T03:41:39;23.25;;;13.85;;
40945;SDS011;55635;50.264;11.918;2022-11-15T03:45:02;23.98;;;13.40;;
40945;SDS011;55635;50.264;11.918;2022-11-15T03:48:30;22.63;;;12.75;;
40945;SDS011;55635;50.264;11.918;2022-11-15T03:51:37;21.17;;;13.40;;
40945;SDS011;55635;50.264;11.918;2022-11-15T03:54:37;19.08;;;13.07;;
40945;SDS011;55635;50.264;11.918;2022-11-15T03:57:50;22.95;;;13.15;;
40945;SDS011;55635;50.264;11.918;2022-11-15T04:00:52;24.50;;;14.45;;
40945;SDS011;55635;50.264;11.918;2022-11-15T04:03:52;23.98;;;14.65;;
40945;SDS011;55635;50.264;11.918;2022-11-15T04:06:51;29.42;;;15.38;;
40945;SDS011;55635;50.264;11.918;2022-11-15T04:09:51;23.05;;;13.88;;
40945;SDS011;55635;50.264;11.918;2022-11-15T04:13:04;22.75;;;13.40;;
40945;SDS011;55635;50.264;11.918;2022-11-15T04:16:03;21.10;;;13.25;;
40945;SDS011;55635;50.264;11.918;2022-11-15T04:19:02;24.38;;;13.65;;
40945;SDS011;55635;50.264;11.918;2022-11-15T04:22:20;22.75;;;12.98;;
40945;SDS011;55635;50.264;11.918;2022-11-15T04:25:39;22.15;;;13.40;;
40945;SDS011;55635;50.264;11.918;2022-11-15T04:28:39;20.67;;;12.80;;
40945;SDS011;55635;50.264;11.918;2022-11-15T04:35:03;22.27;;;12.43;;
40945;SDS011;55635;50.264;11.918;2022-11-15T04:38:04;22.27;;;13.27;;
40945;SDS011;55635;50.264;11.918;2022-11-15T04:41:05;22.75;;;13.82;;
40945;SDS011;55635;50.264;11.918;2022-11-15T04:44:04;23.08;;;13.60;;
40945;SDS011;55635;50.264;11.918;2022-11-15T04:47:04;24.38;;;13.77;;
40945;SDS011;55635;50.264;11.918;2022-11-15T04:53:03;22.52;;;13.38;;
40945;SDS011;55635;50.264;11.918;2022-11-15T04:56:03;24.13;;;14.38;;
40945;SDS011;55635;50.264;11.918;2022-11-15T04:59:03;24.00;;;13.82;;
40945;SDS011;55635;50.264;11.918;2022-11-15T05:02:02;24.25;;;13.90;;
40945;SDS011;55635;50.264;11.918;2022-11-15T05:05:02;21.50;;;13.52;;
40945;SDS011;55635;50.264;11.918;2022-11-15T05:08:01;21.08;;;12.88;;
40945;SDS011;55635;50.264;11.918;2022-11-15T05:11:01;22.30;;;12.98;;
40945;SDS011;55635;50.264;11.918;2022-11-15T05:14:01;20.33;;;12.80;;
40945;SDS011;55635;50.264;11.918;2022-11-15T05:17:01;24.88;;;14.15;;
40945;SDS011;55635;50.264;11.918;2022-11-15T05:20:00;21.88;;;13.07;;
40945;SDS011;55635;50.264;11.918;2022-11-15T05:23:00;21.33;;;12.77;;
40945;SDS011;55635;50.264;11.918;2022-11-15T05:28:59;19.40;;;11.57;;
40945;SDS011;55635;50.264;11.918;2022-11-15T05:31:59;19.55;;;11.95;;
40945;SDS011;55635;50.264;11.918;2022-11-15T05:34:58;18.17;;;11.27;;
40945;SDS011;55635;50.264;11.918;2022-11-15T05:40:57;20.98;;;11.27;;
40945;SDS011;55635;50.264;11.918;2022-11-15T05:44:01;20.58;;;11.73;;
40945;SDS011;55635;50.264;11.918;2022-11-15T05:47:04;17.25;;;10.05;;
40945;SDS011;55635;50.264;11.918;2022-11-15T05:50:07;15.93;;;10.13;;
40945;SDS011;55635;50.264;11.918;2022-11-15T05:53:15;16.85;;;10.18;;
40945;SDS011;55635;50.264;11.918;2022-11-15T05:56:17;18.33;;;9.55;;
40945;SDS011;55635;50.264;11.918;2022-11-15T05:59:17;14.23;;;9.65;;
40945;SDS011;55635;50.264;11.918;2022-11-15T06:02:17;15.40;;;9.90;;
40945;SDS011;55635;50.264;11.918;2022-11-15T06:05:16;15.23;;;10.43;;
40945;SDS011;55635;50.264;11.918;2022-11-15T06:08:16;15.75;;;9.77;;
40945;SDS011;55635;50.264;11.918;2022-11-15T06:11:15;16.60;;;10.05;;
40945;SDS011;55635;50.264;11.918;2022-11-15T06:14:15;13.73;;;9.25;;
40945;SDS011;55635;50.264;11.918;2022-11-15T06:17:14;14.07;;;9.32;;
40945;SDS011;55635;50.264;11.918;2022-11-15T06:20:14;13.00;;;9.00;;
40945;SDS011;55635;50.264;11.918;2022-11-15T06:26:13;14.63;;;8.98;;
40945;SDS011;55635;50.264;11.918;2022-11-15T06:29:12;13.23;;;7.82;;
40945;SDS011;55635;50.264;11.918;2022-11-15T06:35:13;13.00;;;8.73;;
40945;SDS011;55635;50.264;11.918;2022-11-15T06:38:13;12.35;;;8.25;;
40945;SDS011;55635;50.264;11.918;2022-11-15T06:41:12;11.98;;;8.07;;
40945;SDS011;55635;50.264;11.918;2022-11-15T06:44:13;15.98;;;9.18;;
40945;SDS011;55635;50.264;11.918;2022-11-15T06:47:12;15.68;;;8.75;;
40945;SDS011;55635;50.264;11.918;2022-11-15T06:50:12;14.82;;;8.45;;
40945;SDS011;55635;50.264;11.918;2022-11-15T06:56:11;12.55;;;7.57;;
40945;SDS011;55635;50.264;11.918;2022-11-15T06:59:10;10.98;;;6.95;;
40945;SDS011;55635;50.264;11.918;2022-11-15T07:02:13;11.70;;;7.80;;
40945;SDS011;55635;50.264;11.918;2022-11-15T07:05:13;12.85;;;7.90;;
40945;SDS011;55635;50.264;11.918;2022-11-15T07:08:13;14.90;;;8.05;;
40945;SDS011;55635;50.264;11.918;2022-11-15T07:11:13;11.35;;;7.47;;
40945;SDS011;55635;50.264;11.918;2022-11-15T07:14:13;12.85;;;8.82;;
40945;SDS011;55635;50.264;11.918;2022-11-15T07:17:12;14.13;;;8.18;;
40945;SDS011;55635;50.264;11.918;2022-11-15T07:20:11;12.05;;;8.23;;
40945;SDS011;55635;50.264;11.918;2022-11-15T07:23:12;15.05;;;8.70;;
40945;SDS011;55635;50.264;11.918;2022-11-15T07:29:11;10.95;;;7.35;;
40945;SDS011;55635;50.264;11.918;2022-11-15T07:32:10;11.80;;;8.02;;
40945;SDS011;55635;50.264;11.918;2022-11-15T07:35:09;12.55;;;7.88;;
40945;SDS011;55635;50.264;11.918;2022-11-15T07:38:10;9.65;;;7.43;;
40945;SDS011;55635;50.264;11.918;2022-11-15T07:41:09;10.07;;;7.68;;
40945;SDS011;55635;50.264;11.918;2022-11-15T07:44:09;10.73;;;7.25;;
40945;SDS011;55635;50.264;11.918;2022-11-15T07:47:08;8.38;;;6.53;;
40945;SDS011;55635;50.264;11.918;2022-11-15T07:50:08;10.23;;;7.25;;
40945;SDS011;55635;50.264;11.918;2022-11-15T07:53:08;8.73;;;6.70;;
40945;SDS011;55635;50.264;11.918;2022-11-15T07:56:09;8.45;;;6.25;;
40945;SDS011;55635;50.264;11.918;2022-11-15T07:59:09;9.60;;;6.10;;
40945;SDS011;55635;50.264;11.918;2022-11-15T08:02:08;7.60;;;5.95;;
40945;SDS011;55635;50.264;11.918;2022-11-15T08:08:08;5.67;;;4.93;;
40945;SDS011;55635;50.264;11.918;2022-11-15T08:11:09;6.57;;;5.30;;
40945;SDS011;55635;50.264;11.918;2022-11-15T08:14:09;6.88;;;6.00;;
40945;SDS011;55635;50.264;11.918;2022-11-15T08:17:08;7.82;;;6.15;;
40945;SDS011;55635;50.264;11.918;2022-11-15T08:20:08;8.60;;;6.32;;
40945;SDS011;55635;50.264;11.918;2022-11-15T08:23:09;9.60;;;6.35;;
40945;SDS011;55635;50.264;11.918;2022-11-15T08:26:11;7.50;;;5.72;;
40945;SDS011;55635;50.264;11.918;2022-11-15T08:29:11;8.02;;;6.13;;
40945;SDS011;55635;50.264;11.918;2022-11-15T08:32:11;8.18;;;6.38;;
40945;SDS011;55635;50.264;11.918;2022-11-15T08:35:10;8.75;;;5.97;;
40945;SDS011;55635;50.264;11.918;2022-11-15T08:38:10;7.82;;;5.80;;
40945;SDS011;55635;50.264;11.918;2022-11-15T08:41:11;7.80;;;6.25;;
40945;SDS011;55635;50.264;11.918;2022-11-15T08:44:30;8.27;;;5.93;;
40945;SDS011;55635;50.264;11.918;2022-11-15T08:50:29;7.43;;;6.22;;
40945;SDS011;55635;50.264;11.918;2022-11-15T08:53:29;7.88;;;6.85;;
40945;SDS011;55635;50.264;11.918;2022-11-15T08:56:28;7.85;;;6.35;;
40945;SDS011;55635;50.264;11.918;2022-11-15T08:59:28;7.30;;;6.55;;
40945;SDS011;55635;50.264;11.918;2022-11-15T09:02:28;6.55;;;5.90;;
40945;SDS011;55635;50.264;11.918;2022-11-15T09:05:27;8.20;;;6.03;;
40945;SDS011;55635;50.264;11.918;2022-11-15T09:08:29;8.50;;;6.28;;
40945;SDS011;55635;50.264;11.918;2022-11-15T09:11:30;7.68;;;6.03;;
40945;SDS011;55635;50.264;11.918;2022-11-15T09:14:30;7.43;;;6.10;;
40945;SDS011;55635;50.264;11.918;2022-11-15T09:17:29;7.75;;;5.85;;
40945;SDS011;55635;50.264;11.918;2022-11-15T09:20:28;7.00;;;5.82;;
40945;SDS011;55635;50.264;11.918;2022-11-15T09:23:28;8.38;;;6.20;;
40945;SDS011;55635;50.264;11.918;2022-11-15T09:26:28;7.38;;;6.00;;
40945;SDS011;55635;50.264;11.918;2022-11-15T09:32:28;8.88;;;6.18;;
40945;SDS011;55635;50.264;11.918;2022-11-15T09:35:28;8.43;;;5.55;;
40945;SDS011;55635;50.264;11.918;2022-11-15T09:38:28;11.48;;;6.32;;
40945;SDS011;55635;50.264;11.918;2022-11-15T09:41:38;6.55;;;5.65;;
40945;SDS011;55635;50.264;11.918;2022-11-15T09:45:28;8.23;;;6.50;;
40945;SDS011;55635;50.264;11.918;2022-11-15T09:48:55;7.05;;;5.63;;
40945;SDS011;55635;50.264;11.918;2022-11-15T09:51:45;6.88;;;5.80;;
40945;SDS011;55635;50.264;11.918;2022-11-15T09:57:37;7.00;;;5.80;;
40945;SDS011;55635;50.264;11.918;2022-11-15T10:00:39;8.07;;;6.28;;
40945;SDS011;55635;50.264;11.918;2022-11-15T10:03:34;7.20;;;5.93;;
40945;SDS011;55635;50.264;11.918;2022-11-15T10:06:25;8.77;;;6.85;;
40945;SDS011;55635;50.264;11.918;2022-11-15T10:09:15;8.85;;;6.45;;
40945;SDS011;55635;50.264;11.918;2022-11-15T10:12:04;7.57;;;6.18;;
40945;SDS011;55635;50.264;11.918;2022-11-15T10:14:47;7.70;;;6.57;;
40945;SDS011;55635;50.264;11.918;2022-11-15T10:20:31;11.85;;;7.03;;
40945;SDS011;55635;50.264;11.918;2022-11-15T10:23:46;10.85;;;6.38;;
40945;SDS011;55635;50.264;11.918;2022-11-15T10:26:27;11.35;;;7.28;;
40945;SDS011;55635;50.264;11.918;2022-11-15T10:29:08;8.02;;;6.22;;
40945;SDS011;55635;50.264;11.918;2022-11-15T10:31:49;7.43;;;6.28;;
40945;SDS011;55635;50.264;11.918;2022-11-15T10:34:35;8.70;;;6.60;;
40945;SDS011;55635;50.264;11.918;2022-11-15T10:37:29;10.32;;;6.53;;
40945;SDS011;55635;50.264;11.918;2022-11-15T10:40:16;8.55;;;6.40;;
40945;SDS011;55635;50.264;11.918;2022-11-15T10:45:50;8.60;;;5.90;;
40945;SDS011;55635;50.264;11.918;2022-11-15T10:48:32;9.52;;;6.50;;
40945;SDS011;55635;50.264;11.918;2022-11-15T10:51:20;7.05;;;5.72;;
40945;SDS011;55635;50.264;11.918;2022-11-15T10:54:08;8.07;;;5.97;;
40945;SDS011;55635;50.264;11.918;2022-11-15T10:56:53;8.32;;;5.57;;
40945;SDS011;55635;50.264;11.918;2022-11-15T10:59:37;6.93;;;5.93;;
40945;SDS011;55635;50.264;11.918;2022-11-15T11:08:20;8.18;;;6.47;;
40945;SDS011;55635;50.264;11.918;2022-11-15T11:11:04;8.38;;;7.03;;
40945;SDS011;55635;50.264;11.918;2022-11-15T11:13:47;8.90;;;6.95;;
40945;SDS011;55635;50.264;11.918;2022-11-15T11:16:41;7.65;;;6.32;;
40945;SDS011;55635;50.264;11.918;2022-11-15T11:19:33;7.78;;;6.28;;
40945;SDS011;55635;50.264;11.918;2022-11-15T11:32:18;7.78;;;6.50;;
40945;SDS011;55635;50.264;11.918;2022-11-15T11:49:24;10.63;;;6.80;;
40945;SDS011;55635;50.264;11.918;2022-11-15T11:55:36;9.85;;;6.53;;
40945;SDS011;55635;50.264;11.918;2022-11-15T11:58:33;9.57;;;7.30;;
40945;SDS011;55635;50.264;11.918;2022-11-15T12:04:36;8.63;;;6.43;;
40945;SDS011;55635;50.264;11.918;2022-11-15T12:07:24;10.27;;;6.72;;
40945;SDS011;55635;50.264;11.918;2022-11-15T12:10:22;9.13;;;6.75;;
40945;SDS011;55635;50.264;11.918;2022-11-15T12:13:11;8.15;;;6.75;;
40945;SDS011;55635;50.264;11.918;2022-11-15T12:19:03;9.35;;;6.45;;
40945;SDS011;55635;50.264;11.918;2022-11-15T12:24:41;7.28;;;6.07;;
40945;SDS011;55635;50.264;11.918;2022-11-15T12:30:37;8.50;;;6.88;;
40945;SDS011;55635;50.264;11.918;2022-11-15T12:37:00;6.80;;;5.90;;
40945;SDS011;55635;50.264;11.918;2022-11-15T12:45:57;8.50;;;6.18;;
40945;SDS011;55635;50.264;11.918;2022-11-15T12:48:46;6.45;;;5.75;;
40945;SDS011;55635;50.264;11.918;2022-11-15T13:08:10;10.32;;;6.53;;
40945;SDS011;55635;50.264;11.918;2022-11-15T13:11:47;7.82;;;6.10;;
40945;SDS011;55635;50.264;11.918;2022-11-15T13:22:52;6.78;;;5.68;;
40945;SDS011;55635;50.264;11.918;2022-11-15T13:28:50;9.32;;;7.05;;
40945;SDS011;55635;50.264;11.918;2022-11-15T13:31:40;8.90;;;6.00;;
40945;SDS011;55635;50.264;11.918;2022-11-15T13:34:33;9.07;;;6.63;;
40945;SDS011;55635;50.264;11.918;2022-11-15T13:40:10;12.23;;;7.40;;
40945;SDS011;55635;50.264;11.918;2022-11-15T13:46:05;11.48;;;7.55;;
40945;SDS011;55635;50.264;11.918;2022-11-15T13:49:00;9.73;;;6.45;;
40945;SDS011;55635;50.264;11.918;2022-11-15T13:51:52;11.63;;;7.30;;
40945;SDS011;55635;50.264;11.918;2022-11-15T13:54:40;10.85;;;7.43;;
40945;SDS011;55635;50.264;11.918;2022-11-15T13:57:58;8.07;;;6.10;;
40945;SDS011;55635;50.264;11.918;2022-11-15T14:00:46;9.35;;;6.70;;
40945;SDS011;55635;50.264;11.918;2022-11-15T14:03:28;9.73;;;7.03;;
40945;SDS011;55635;50.264;11.918;2022-11-15T14:06:22;8.85;;;6.30;;
40945;SDS011;55635;50.264;11.918;2022-11-15T14:11:53;9.32;;;7.25;;
40945;SDS011;55635;50.264;11.918;2022-11-15T14:14:36;10.38;;;6.80;;
40945;SDS011;55635;50.264;11.918;2022-11-15T14:20:20;9.20;;;6.22;;
40945;SDS011;55635;50.264;11.918;2022-11-15T14:23:18;10.50;;;7.30;;
40945;SDS011;55635;50.264;11.918;2022-11-15T14:26:11;9.50;;;7.15;;
40945;SDS011;55635;50.264;11.918;2022-11-15T14:29:26;9.98;;;7.43;;
40945;SDS011;55635;50.264;11.918;2022-11-15T14:35:00;8.77;;;6.65;;
40945;SDS011;55635;50.264;11.918;2022-11-15T14:37:44;8.02;;;6.25;;
40945;SDS011;55635;50.264;11.918;2022-11-15T14:40:25;11.85;;;6.97;;
40945;SDS011;55635;50.264;11.918;2022-11-15T14:43:08;10.50;;;7.55;;
40945;SDS011;55635;50.264;11.918;2022-11-15T14:45:51;13.10;;;7.60;;
40945;SDS011;55635;50.264;11.918;2022-11-15T14:48:32;9.95;;;7.95;;
40945;SDS011;55635;50.264;11.918;2022-11-15T14:51:13;13.05;;;7.88;;
40945;SDS011;55635;50.264;11.918;2022-11-15T14:53:57;13.52;;;9.05;;
40945;SDS011;55635;50.264;11.918;2022-11-15T14:56:38;10.10;;;7.35;;
40945;SDS011;55635;50.264;11.918;2022-11-15T14:59:19;9.40;;;7.55;;
40945;SDS011;55635;50.264;11.918;2022-11-15T15:02:00;9.93;;;7.88;;
40945;SDS011;55635;50.264;11.918;2022-11-15T15:04:41;9.95;;;7.20;;
40945;SDS011;55635;50.264;11.918;2022-11-15T15:07:22;9.80;;;7.10;;
40945;SDS011;55635;50.264;11.918;2022-11-15T15:10:03;10.30;;;8.52;;
40945;SDS011;55635;50.264;11.918;2022-11-15T15:12:44;11.52;;;7.90;;
40945;SDS011;55635;50.264;11.918;2022-11-15T15:15:25;12.43;;;8.13;;
40945;SDS011;55635;50.264;11.918;2022-11-15T15:18:14;12.23;;;8.02;;
40945;SDS011;55635;50.264;11.918;2022-11-15T15:20:57;11.52;;;8.20;;
40945;SDS011;55635;50.264;11.918;2022-11-15T15:23:47;10.30;;;6.80;;
40945;SDS011;55635;50.264;11.918;2022-11-15T15:26:28;10.63;;;8.15;;
40945;SDS011;55635;50.264;11.918;2022-11-15T15:29:09;13.63;;;8.77;;
40945;SDS011;55635;50.264;11.918;2022-11-15T15:31:50;10.25;;;7.50;;
40945;SDS011;55635;50.264;11.918;2022-11-15T15:34:31;10.15;;;7.65;;
40945;SDS011;55635;50.264;11.918;2022-11-15T15:37:21;10.55;;;7.00;;
40945;SDS011;55635;50.264;11.918;2022-11-15T15:40:16;10.88;;;7.53;;
40945;SDS011;55635;50.264;11.918;2022-11-15T15:43:02;11.40;;;7.63;;
40945;SDS011;55635;50.264;11.918;2022-11-15T15:45:43;9.88;;;7.47;;
40945;SDS011;55635;50.264;11.918;2022-11-15T15:48:25;9.82;;;7.20;;
40945;SDS011;55635;50.264;11.918;2022-11-15T15:51:06;12.68;;;8.95;;
40945;SDS011;55635;50.264;11.918;2022-11-15T15:53:47;9.50;;;7.60;;
40945;SDS011;55635;50.264;11.918;2022-11-15T15:56:28;10.40;;;7.05;;
40945;SDS011;55635;50.264;11.918;2022-11-15T15:59:09;10.73;;;6.60;;
40945;SDS011;55635;50.264;11.918;2022-11-15T16:01:50;12.98;;;6.80;;
40945;SDS011;55635;50.264;11.918;2022-11-15T16:04:31;9.10;;;7.60;;
40945;SDS011;55635;50.264;11.918;2022-11-15T16:07:15;8.60;;;6.15;;
40945;SDS011;55635;50.264;11.918;2022-11-15T16:10:01;8.53;;;5.97;;
40945;SDS011;55635;50.264;11.918;2022-11-15T16:13:02;13.65;;;6.40;;
40945;SDS011;55635;50.264;11.918;2022-11-15T16:15:44;9.68;;;6.18;;
40945;SDS011;55635;50.264;11.918;2022-11-15T16:18:27;10.02;;;6.80;;
40945;SDS011;55635;50.264;11.918;2022-11-15T16:21:08;9.88;;;7.03;;
40945;SDS011;55635;50.264;11.918;2022-11-15T16:23:49;11.43;;;7.03;;
40945;SDS011;55635;50.264;11.918;2022-11-15T16:26:30;10.85;;;6.88;;
40945;SDS011;55635;50.264;11.918;2022-11-15T16:29:12;8.07;;;6.25;;
40945;SDS011;55635;50.264;11.918;2022-11-15T16:31:54;12.23;;;7.20;;
40945;SDS011;55635;50.264;11.918;2022-11-15T16:34:36;10.75;;;8.13;;
40945;SDS011;55635;50.264;11.918;2022-11-15T16:37:23;10.65;;;7.20;;
40945;SDS011;55635;50.264;11.918;2022-11-15T16:40:05;12.18;;;8.13;;
40945;SDS011;55635;50.264;11.918;2022-11-15T16:43:10;9.75;;;7.22;;
40945;SDS011;55635;50.264;11.918;2022-11-15T16:45:51;12.52;;;7.65;;
40945;SDS011;55635;50.264;11.918;2022-11-15T16:48:32;12.35;;;8.00;;
40945;SDS011;55635;50.264;11.918;2022-11-15T16:51:13;12.02;;;7.57;;
40945;SDS011;55635;50.264;11.918;2022-11-15T16:53:55;10.60;;;7.30;;
40945;SDS011;55635;50.264;11.918;2022-11-15T16:56:36;14.25;;;8.55;;
40945;SDS011;55635;50.264;11.918;2022-11-15T16:59:18;12.10;;;7.57;;
40945;SDS011;55635;50.264;11.918;2022-11-15T17:02:02;14.18;;;7.68;;
40945;SDS011;55635;50.264;11.918;2022-11-15T17:04:43;17.15;;;8.77;;
40945;SDS011;55635;50.264;11.918;2022-11-15T17:07:24;14.25;;;8.77;;
40945;SDS011;55635;50.264;11.918;2022-11-15T17:10:05;16.30;;;9.15;;
40945;SDS011;55635;50.264;11.918;2022-11-15T17:12:48;12.25;;;7.72;;
40945;SDS011;55635;50.264;11.918;2022-11-15T17:15:30;16.23;;;8.63;;
40945;SDS011;55635;50.264;11.918;2022-11-15T17:18:11;15.93;;;9.05;;
40945;SDS011;55635;50.264;11.918;2022-11-15T17:20:54;12.30;;;8.43;;
40945;SDS011;55635;50.264;11.918;2022-11-15T17:23:35;11.98;;;8.60;;
40945;SDS011;55635;50.264;11.918;2022-11-15T17:26:16;15.55;;;9.82;;
40945;SDS011;55635;50.264;11.918;2022-11-15T17:28:57;14.10;;;9.43;;
40945;SDS011;55635;50.264;11.918;2022-11-15T17:31:39;16.10;;;10.05;;
40945;SDS011;55635;50.264;11.918;2022-11-15T17:34:20;16.30;;;10.10;;
40945;SDS011;55635;50.264;11.918;2022-11-15T17:37:01;17.48;;;10.25;;
40945;SDS011;55635;50.264;11.918;2022-11-15T17:39:42;18.48;;;10.20;;
40945;SDS011;55635;50.264;11.918;2022-11-15T17:42:23;14.50;;;9.07;;
40945;SDS011;55635;50.264;11.918;2022-11-15T17:45:04;20.63;;;11.88;;
40945;SDS011;55635;50.264;11.918;2022-11-15T17:47:46;18.48;;;11.27;;
40945;SDS011;55635;50.264;11.918;2022-11-15T17:50:26;15.73;;;10.35;;
40945;SDS011;55635;50.264;11.918;2022-11-15T17:53:07;15.48;;;10.35;;
40945;SDS011;55635;50.264;11.918;2022-11-15T17:55:48;18.35;;;10.70;;
40945;SDS011;55635;50.264;11.918;2022-11-15T17:58:33;17.05;;;10.38;;
40945;SDS011;55635;50.264;11.918;2022-11-15T18:04:12;18.27;;;11.07;;
40945;SDS011;55635;50.264;11.918;2022-11-15T18:06:54;19.63;;;10.60;;
40945;SDS011;55635;50.264;11.918;2022-11-15T18:09:35;21.83;;;12.52;;
40945;SDS011;55635;50.264;11.918;2022-11-15T18:12:16;19.65;;;11.27;;
40945;SDS011;55635;50.264;11.918;2022-11-15T18:14:58;16.30;;;10.88;;
40945;SDS011;55635;50.264;11.918;2022-11-15T18:17:40;23.92;;;13.93;;
40945;SDS011;55635;50.264;11.918;2022-11-15T18:20:21;22.30;;;12.25;;
40945;SDS011;55635;50.264;11.918;2022-11-15T18:23:02;20.67;;;12.52;;
40945;SDS011;55635;50.264;11.918;2022-11-15T18:25:43;18.58;;;11.40;;
40945;SDS011;55635;50.264;11.918;2022-11-15T18:28:35;19.65;;;11.90;;
40945;SDS011;55635;50.264;11.918;2022-11-15T18:31:19;21.63;;;12.07;;
40945;SDS011;55635;50.264;11.918;2022-11-15T18:34:02;18.90;;;11.82;;
40945;SDS011;55635;50.264;11.918;2022-11-15T18:36:43;18.08;;;11.65;;
40945;SDS011;55635;50.264;11.918;2022-11-15T18:39:25;22.63;;;11.95;;
40945;SDS011;55635;50.264;11.918;2022-11-15T18:42:06;19.65;;;11.25;;
40945;SDS011;55635;50.264;11.918;2022-11-15T18:44:47;19.67;;;11.80;;
40945;SDS011;55635;50.264;11.918;2022-11-15T18:47:28;21.65;;;11.50;;
40945;SDS011;55635;50.264;11.918;2022-11-15T18:50:10;20.02;;;11.85;;
40945;SDS011;55635;50.264;11.918;2022-11-15T18:52:51;21.55;;;12.73;;
40945;SDS011;55635;50.264;11.918;2022-11-15T18:55:32;22.15;;;12.02;;
40945;SDS011;55635;50.264;11.918;2022-11-15T18:58:13;22.17;;;12.10;;
40945;SDS011;55635;50.264;11.918;2022-11-15T19:00:58;20.98;;;10.98;;
40945;SDS011;55635;50.264;11.918;2022-11-15T19:03:56;21.42;;;12.45;;
40945;SDS011;55635;50.264;11.918;2022-11-15T19:06:38;19.70;;;10.95;;
40945;SDS011;55635;50.264;11.918;2022-11-15T19:09:21;18.33;;;11.60;;
40945;SDS011;55635;50.264;11.918;2022-11-15T19:12:06;22.08;;;12.00;;
40945;SDS011;55635;50.264;11.918;2022-11-15T19:14:47;20.00;;;12.48;;
40945;SDS011;55635;50.264;11.918;2022-11-15T19:17:28;20.02;;;11.48;;
40945;SDS011;55635;50.264;11.918;2022-11-15T19:20:09;18.65;;;11.30;;
40945;SDS011;55635;50.264;11.918;2022-11-15T19:22:50;20.02;;;11.30;;
40945;SDS011;55635;50.264;11.918;2022-11-15T19:25:31;20.50;;;12.00;;
40945;SDS011;55635;50.264;11.918;2022-11-15T19:28:12;20.83;;;11.43;;
40945;SDS011;55635;50.264;11.918;2022-11-15T19:30:53;20.85;;;11.13;;
40945;SDS011;55635;50.264;11.918;2022-11-15T19:33:46;24.48;;;12.70;;
40945;SDS011;55635;50.264;11.918;2022-11-15T19:36:28;21.85;;;12.27;;